createdAt,value
2022-11-26T00:00:43.560Z,10.30
2022-11-26T00:03:11.702Z,10.30
2022-11-26T00:05:42.846Z,10.30
2022-11-26T00:08:19.536Z,10.20
2022-11-26T00:10:48.439Z,10.20
2022-11-26T00:13:21.501Z,10.20
2022-11-26T00:15:50.126Z,10.10
2022-11-26T00:18:18.213Z,10.10
2022-11-26T00:20:49.513Z,10.10
2022-11-26T00:23:25.124Z,10.00
2022-11-26T00:25:55.629Z,10.10
2022-11-26T00:28:27.317Z,10.00
2022-11-26T00:30:56.275Z,10.00
2022-11-26T00:33:24.473Z,10.00
2022-11-26T00:36:13.181Z,9.90
2022-11-26T00:38:40.164Z,9.90
2022-11-26T00:41:15.075Z,9.90
2022-11-26T00:43:41.769Z,9.90
2022-11-26T00:46:15.602Z,9.90
2022-11-26T00:48:42.651Z,9.90
2022-11-26T00:51:19.753Z,9.80
2022-11-26T00:53:49.108Z,9.80
2022-11-26T00:56:19.102Z,9.80
2022-11-26T00:58:47.481Z,9.80
2022-11-26T01:01:19.004Z,9.80
2022-11-26T01:03:46.284Z,9.70
2022-11-26T01:06:22.577Z,9.70
2022-11-26T01:08:49.646Z,9.70
2022-11-26T01:11:19.486Z,9.70
2022-11-26T01:13:48.917Z,9.60
2022-11-26T01:16:23.452Z,9.60
2022-11-26T01:18:52.333Z,9.70
2022-11-26T01:21:20.718Z,9.60
2022-11-26T01:23:47.875Z,9.60
2022-11-26T01:26:20.870Z,9.60
2022-11-26T01:28:47.935Z,9.60
2022-11-26T01:31:23.765Z,9.50
2022-11-26T01:33:51.219Z,9.50
2022-11-26T01:36:28.632Z,9.50
2022-11-26T01:39:01.267Z,9.50
2022-11-26T01:41:34.110Z,9.50
2022-11-26T01:44:01.498Z,9.50
2022-11-26T01:46:34.471Z,9.50
2022-11-26T01:49:24.307Z,9.50
2022-11-26T01:52:05.188Z,9.50
2022-11-26T01:54:35.127Z,9.50
2022-11-26T01:57:20.080Z,9.50
2022-11-26T01:59:52.910Z,9.40
2022-11-26T02:02:25.149Z,9.40
2022-11-26T02:05:16.874Z,9.40
2022-11-26T02:07:44.232Z,9.40
2022-11-26T02:10:12.514Z,9.40
2022-11-26T02:12:41.071Z,9.40
2022-11-26T02:15:08.882Z,9.40
2022-11-26T02:17:43.259Z,9.30
2022-11-26T02:20:36.337Z,9.30
2022-11-26T02:23:30.427Z,9.30
2022-11-26T02:26:06.301Z,9.30
2022-11-26T02:28:35.790Z,9.20
2022-11-26T02:31:16.155Z,9.20
2022-11-26T02:33:56.911Z,9.20
2022-11-26T02:36:36.270Z,9.20
2022-11-26T02:39:24.594Z,9.20
2022-11-26T02:41:57.622Z,9.20
2022-11-26T02:44:27.928Z,9.20
2022-11-26T02:47:03.889Z,9.20
2022-11-26T02:49:33.158Z,9.10
2022-11-26T02:52:02.456Z,9.10
2022-11-26T02:54:30.285Z,9.10
2022-11-26T02:56:58.539Z,9.10
2022-11-26T02:59:26.240Z,9.10
2022-11-26T03:02:07.764Z,9.10
2022-11-26T03:04:39.519Z,9.10
2022-11-26T03:07:09.196Z,9.00
2022-11-26T03:09:57.526Z,9.00
2022-11-26T03:12:25.037Z,9.00
2022-11-26T03:14:52.216Z,9.00
2022-11-26T03:17:19.999Z,9.00
2022-11-26T03:19:47.445Z,9.00
2022-11-26T03:22:15.153Z,9.00
2022-11-26T03:24:42.398Z,9.00
2022-11-26T03:27:09.416Z,9.00
2022-11-26T03:29:36.239Z,9.00
2022-11-26T03:32:03.058Z,9.00
2022-11-26T03:34:29.845Z,9.00
2022-11-26T03:36:56.683Z,9.00
2022-11-26T03:39:23.476Z,9.00
2022-11-26T03:41:50.231Z,8.90
2022-11-26T03:44:17.042Z,8.90
2022-11-26T03:46:43.820Z,8.90
2022-11-26T03:49:10.744Z,8.80
2022-11-26T03:51:37.513Z,8.80
2022-11-26T03:54:04.391Z,8.80
2022-11-26T03:56:32.463Z,8.70
2022-11-26T03:58:59.185Z,8.70
2022-11-26T04:01:26.051Z,8.70
2022-11-26T04:03:53.057Z,8.70
2022-11-26T04:06:19.853Z,8.70
2022-11-26T04:08:46.779Z,8.80
2022-11-26T04:11:13.838Z,8.70
2022-11-26T04:13:40.571Z,8.80
2022-11-26T04:16:07.999Z,8.80
2022-11-26T04:18:34.871Z,8.70
2022-11-26T04:21:01.769Z,8.70
2022-11-26T04:23:28.569Z,8.70
2022-11-26T04:25:55.308Z,8.70
2022-11-26T04:28:22.091Z,8.70
2022-11-26T04:30:48.819Z,8.70
2022-11-26T04:33:15.629Z,8.70
2022-11-26T04:35:43.524Z,8.70
2022-11-26T04:38:10.477Z,8.70
2022-11-26T04:40:37.272Z,8.70
2022-11-26T04:43:05.402Z,8.80
2022-11-26T04:45:32.229Z,8.80
2022-11-26T04:48:00.019Z,8.80
2022-11-26T04:50:26.952Z,8.90
2022-11-26T04:52:53.655Z,8.80
2022-11-26T04:55:20.452Z,8.90
2022-11-26T04:57:48.678Z,8.90
2022-11-26T05:00:18.307Z,8.90
2022-11-26T05:02:45.802Z,8.90
2022-11-26T05:05:13.198Z,8.90
2022-11-26T05:07:41.315Z,8.90
2022-11-26T05:10:09.251Z,8.90
2022-11-26T05:12:36.261Z,8.90
2022-11-26T05:15:03.353Z,8.80
2022-11-26T05:17:30.245Z,8.80
2022-11-26T05:19:58.104Z,8.90
2022-11-26T05:22:24.783Z,8.90
2022-11-26T05:24:51.583Z,8.80
2022-11-26T05:27:18.507Z,8.80
2022-11-26T05:29:45.269Z,8.80
2022-11-26T05:32:14.352Z,8.80
2022-11-26T05:34:41.320Z,8.90
2022-11-26T05:37:08.257Z,8.80
2022-11-26T05:39:35.223Z,8.80
2022-11-26T05:42:07.695Z,8.90
2022-11-26T05:44:36.198Z,8.90
2022-11-26T05:47:03.118Z,8.90
2022-11-26T05:49:29.891Z,8.80
2022-11-26T05:51:56.579Z,8.80
2022-11-26T05:54:23.324Z,8.90
2022-11-26T05:56:53.025Z,8.90
2022-11-26T05:59:22.402Z,8.90
2022-11-26T06:01:49.156Z,8.90
2022-11-26T06:04:16.931Z,8.90
2022-11-26T06:06:43.684Z,8.90
2022-11-26T06:09:10.425Z,8.90
2022-11-26T06:11:37.146Z,8.90
2022-11-26T06:14:04.002Z,8.90
2022-11-26T06:16:30.980Z,8.90
2022-11-26T06:18:59.253Z,8.80
2022-11-26T06:21:25.973Z,8.80
2022-11-26T06:23:58.878Z,8.60
2022-11-26T06:26:26.498Z,8.60
2022-11-26T06:28:53.289Z,8.60
2022-11-26T06:31:20.213Z,8.60
2022-11-26T06:33:47.196Z,8.60
2022-11-26T06:36:14.374Z,8.60
2022-11-26T06:38:41.065Z,8.60
2022-11-26T06:41:09.942Z,8.60
2022-11-26T06:43:36.900Z,8.50
2022-11-26T06:46:09.977Z,8.40
2022-11-26T06:48:39.779Z,8.40
2022-11-26T06:51:11.842Z,8.30
2022-11-26T06:53:38.769Z,8.30
2022-11-26T06:56:17.682Z,8.30
2022-11-26T06:58:46.706Z,8.20
2022-11-26T07:01:23.899Z,8.20
2022-11-26T07:03:50.955Z,8.20
2022-11-26T07:06:30.834Z,8.20
2022-11-26T07:09:01.916Z,8.20
2022-11-26T07:11:28.793Z,8.20
2022-11-26T07:13:55.583Z,8.10
2022-11-26T07:16:22.842Z,8.10
2022-11-26T07:18:51.305Z,8.20
2022-11-26T07:21:19.717Z,8.10
2022-11-26T07:23:48.217Z,8.20
2022-11-26T07:26:15.966Z,8.30
2022-11-26T07:28:44.291Z,8.30
2022-11-26T07:31:17.061Z,8.30
2022-11-26T07:33:44.861Z,8.40
2022-11-26T07:36:31.912Z,8.40
2022-11-26T07:39:03.367Z,8.40
2022-11-26T07:41:30.753Z,8.50
2022-11-26T07:43:57.534Z,8.40
2022-11-26T07:46:26.435Z,8.40
2022-11-26T07:48:55.527Z,8.40
2022-11-26T07:51:26.338Z,8.40
2022-11-26T07:53:55.413Z,8.40
2022-11-26T07:56:23.301Z,8.50
2022-11-26T07:58:50.067Z,8.60
2022-11-26T08:01:19.910Z,8.60
2022-11-26T08:03:49.285Z,8.70
2022-11-26T08:06:19.025Z,8.80
2022-11-26T08:08:46.004Z,8.80
2022-11-26T08:11:15.504Z,8.80
2022-11-26T08:13:45.634Z,8.80
2022-11-26T08:16:13.362Z,8.90
2022-11-26T08:18:41.035Z,9.00
2022-11-26T08:21:09.382Z,9.00
2022-11-26T08:23:39.184Z,9.10
2022-11-26T08:28:55.905Z,9.20
2022-11-26T08:31:25.116Z,9.30
2022-11-26T08:33:52.107Z,9.40
2022-11-26T08:36:19.195Z,9.40
2022-11-26T08:38:46.049Z,9.50
2022-11-26T08:41:14.079Z,9.50
2022-11-26T08:46:28.038Z,9.70
2022-11-26T08:48:58.216Z,9.80
2022-11-26T08:51:25.549Z,9.80
2022-11-26T08:53:52.374Z,9.90
2022-11-26T08:56:19.666Z,9.90
2022-11-26T08:58:48.923Z,10.00
2022-11-26T09:01:20.388Z,10.00
2022-11-26T09:03:52.161Z,10.10
2022-11-26T09:06:20.367Z,10.10
2022-11-26T09:09:06.732Z,10.20
2022-11-26T09:11:36.947Z,10.30
2022-11-26T09:14:04.264Z,10.30
2022-11-26T09:16:33.229Z,10.40
2022-11-26T09:19:01.160Z,10.40
2022-11-26T09:21:29.965Z,10.40
2022-11-26T09:23:58.044Z,10.50
2022-11-26T09:26:25.439Z,10.50
2022-11-26T09:28:52.724Z,10.60
2022-11-26T09:31:21.119Z,10.60
2022-11-26T09:33:48.287Z,10.50
2022-11-26T09:36:16.367Z,10.50
2022-11-26T09:38:45.353Z,10.50
2022-11-26T09:41:12.083Z,10.60
2022-11-26T09:44:04.633Z,10.60
2022-11-26T09:47:12.067Z,10.70
2022-11-26T09:50:13.295Z,10.70
2022-11-26T09:53:03.405Z,10.70
2022-11-26T09:55:36.780Z,10.80
2022-11-26T09:58:15.017Z,10.80
2022-11-26T10:00:45.003Z,10.80
2022-11-26T10:03:16.245Z,10.90
2022-11-26T10:05:49.568Z,10.90
2022-11-26T10:08:44.411Z,11.00
2022-11-26T10:11:37.481Z,11.00
2022-11-26T10:14:48.677Z,11.10
2022-11-26T10:17:36.173Z,11.10
2022-11-26T10:20:19.223Z,11.10
2022-11-26T10:23:11.343Z,11.20
2022-11-26T10:25:51.367Z,11.30
2022-11-26T10:28:36.084Z,11.30
2022-11-26T10:31:10.354Z,11.30
2022-11-26T10:34:02.147Z,11.40
2022-11-26T10:36:41.683Z,11.30
2022-11-26T10:39:14.132Z,11.40
2022-11-26T10:41:40.917Z,11.40
2022-11-26T10:44:29.762Z,11.40
2022-11-26T10:46:57.327Z,11.50
2022-11-26T10:49:26.127Z,11.50
2022-11-26T10:52:02.513Z,11.50
2022-11-26T10:54:37.719Z,11.60
2022-11-26T10:57:10.907Z,11.60
2022-11-26T10:59:45.091Z,11.60
2022-11-26T11:02:17.594Z,11.60
2022-11-26T11:04:47.045Z,11.70
2022-11-26T11:07:41.765Z,11.70
2022-11-26T11:10:08.565Z,11.60
2022-11-26T11:13:03.157Z,11.60
2022-11-26T11:15:31.931Z,11.60
2022-11-26T11:18:06.065Z,11.60
2022-11-26T11:20:38.163Z,11.60
2022-11-26T11:23:39.921Z,11.60
2022-11-26T11:26:22.155Z,11.50
2022-11-26T11:28:54.671Z,11.50
2022-11-26T11:31:24.936Z,11.50
2022-11-26T11:33:52.716Z,11.50
2022-11-26T11:36:29.305Z,11.50
2022-11-26T11:39:01.365Z,11.50
2022-11-26T11:41:49.555Z,11.50
2022-11-26T11:44:18.148Z,11.60
2022-11-26T11:46:59.820Z,11.60
2022-11-26T11:49:45.671Z,11.60
2022-11-26T11:52:15.161Z,11.60
2022-11-26T11:54:48.783Z,11.60
2022-11-26T11:57:38.889Z,11.70
2022-11-26T12:00:20.563Z,11.70
2022-11-26T12:03:25.210Z,11.70
2022-11-26T12:06:09.759Z,11.70
2022-11-26T12:09:02.762Z,11.70
2022-11-26T12:11:52.170Z,11.70
2022-11-26T12:14:34.703Z,11.70
2022-11-26T12:17:33.420Z,11.70
2022-11-26T12:20:44.381Z,11.70
2022-11-26T12:23:29.389Z,11.70
2022-11-26T12:26:35.676Z,11.80
2022-11-26T12:29:20.857Z,11.80
2022-11-26T12:31:54.101Z,11.80
2022-11-26T12:34:32.303Z,11.90
2022-11-26T12:37:25.287Z,11.90
2022-11-26T12:40:01.199Z,11.90
2022-11-26T12:42:48.080Z,11.90
2022-11-26T12:45:36.802Z,12.00
2022-11-26T12:48:30.046Z,12.10
2022-11-26T12:51:24.406Z,12.10
2022-11-26T12:54:10.186Z,12.10
2022-11-26T12:57:00.613Z,12.10
2022-11-26T12:59:36.536Z,12.10
2022-11-26T13:02:36.787Z,12.10
2022-11-26T13:05:04.395Z,12.10
2022-11-26T13:07:53.900Z,12.10
2022-11-26T13:10:39.201Z,12.10
2022-11-26T13:13:38.581Z,12.10
2022-11-26T13:16:26.651Z,12.10
2022-11-26T13:19:06.418Z,12.10
2022-11-26T13:22:28.025Z,12.10
2022-11-26T13:25:43.582Z,12.10
2022-11-26T13:28:38.219Z,12.10
2022-11-26T13:31:32.822Z,12.10
2022-11-26T13:34:36.997Z,12.20
2022-11-26T13:37:25.717Z,12.20
2022-11-26T13:39:55.473Z,12.20
2022-11-26T13:42:40.776Z,12.20
2022-11-26T13:45:31.761Z,12.10
2022-11-26T13:48:30.195Z,12.10
2022-11-26T13:51:07.123Z,12.10
2022-11-26T13:53:42.707Z,12.10
2022-11-26T13:56:11.215Z,12.10
2022-11-26T13:58:48.429Z,12.10
2022-11-26T14:01:35.408Z,12.10
2022-11-26T14:04:03.744Z,12.10
2022-11-26T14:06:30.919Z,12.10
2022-11-26T14:08:57.932Z,12.00
2022-11-26T14:11:55.643Z,12.00
2022-11-26T14:14:27.427Z,12.10
2022-11-26T14:17:09.370Z,12.10
2022-11-26T14:19:42.408Z,12.10
2022-11-26T14:22:21.615Z,12.10
2022-11-26T14:24:51.374Z,12.10
2022-11-26T14:27:26.699Z,12.00
2022-11-26T14:30:15.274Z,12.00
2022-11-26T14:33:00.698Z,12.00
2022-11-26T14:35:34.317Z,12.00
2022-11-26T14:38:05.148Z,12.00
2022-11-26T14:40:34.949Z,12.00
2022-11-26T14:43:22.370Z,11.90
2022-11-26T14:46:04.791Z,11.90
2022-11-26T14:48:34.892Z,11.90
2022-11-26T14:51:02.309Z,11.90
2022-11-26T14:53:32.350Z,11.90
2022-11-26T14:55:59.943Z,11.90
2022-11-26T14:58:35.734Z,11.90
2022-11-26T15:01:19.308Z,11.90
2022-11-26T15:03:58.848Z,11.90
2022-11-26T15:06:29.886Z,11.90
2022-11-26T15:09:09.895Z,11.90
2022-11-26T15:11:39.238Z,11.90
2022-11-26T15:14:06.154Z,11.90
2022-11-26T15:16:36.560Z,11.90
2022-11-26T15:19:07.248Z,11.90
2022-11-26T15:21:34.518Z,11.90
2022-11-26T15:24:07.715Z,11.90
2022-11-26T15:26:36.578Z,11.90
2022-11-26T15:29:20.673Z,11.90
2022-11-26T15:31:47.387Z,11.80
2022-11-26T15:34:14.946Z,11.80
2022-11-26T15:36:41.720Z,11.80
2022-11-26T15:39:28.699Z,11.70
2022-11-26T15:42:06.028Z,11.70
2022-11-26T15:44:40.571Z,11.70
2022-11-26T15:47:19.253Z,11.70
2022-11-26T15:49:52.079Z,11.60
2022-11-26T15:52:23.376Z,11.60
2022-11-26T15:55:16.390Z,11.50
2022-11-26T15:57:43.785Z,11.50
2022-11-26T16:00:21.882Z,11.50
2022-11-26T16:02:48.849Z,11.40
2022-11-26T16:05:23.110Z,11.40
2022-11-26T16:07:58.579Z,11.40
2022-11-26T16:10:33.744Z,11.40
2022-11-26T16:13:15.566Z,11.40
2022-11-26T16:16:04.626Z,11.30
2022-11-26T16:18:44.379Z,11.30
2022-11-26T16:21:13.891Z,11.30
2022-11-26T16:23:40.814Z,11.30
2022-11-26T16:26:19.850Z,11.30
2022-11-26T16:28:47.636Z,11.30
2022-11-26T16:31:15.688Z,11.30
2022-11-26T16:33:44.308Z,11.30
2022-11-26T16:36:19.425Z,11.30
2022-11-26T16:38:46.859Z,11.30
2022-11-26T16:41:15.186Z,11.30
2022-11-26T16:43:41.973Z,11.30
2022-11-26T16:46:17.471Z,11.20
2022-11-26T16:48:46.583Z,11.20
2022-11-26T16:51:14.015Z,11.20
2022-11-26T16:53:42.472Z,11.10
2022-11-26T16:56:38.424Z,11.10
2022-11-26T16:59:14.579Z,11.00
2022-11-26T17:01:41.625Z,10.90
2022-11-26T17:04:08.453Z,10.90
2022-11-26T17:06:35.287Z,10.80
2022-11-26T17:09:02.309Z,10.90
2022-11-26T17:11:29.054Z,10.90
2022-11-26T17:13:55.927Z,10.90
2022-11-26T17:16:23.575Z,10.90
2022-11-26T17:18:50.737Z,11.00
2022-11-26T17:21:17.884Z,11.00
2022-11-26T17:23:44.573Z,11.00
2022-11-26T17:26:21.564Z,11.00
2022-11-26T17:28:48.893Z,11.00
2022-11-26T17:31:15.794Z,11.00
2022-11-26T17:33:43.531Z,11.00
2022-11-26T17:36:16.528Z,11.00
2022-11-26T17:38:44.109Z,11.00
2022-11-26T17:41:11.693Z,10.90
2022-11-26T17:43:39.086Z,10.90
2022-11-26T17:46:14.033Z,10.80
2022-11-26T17:48:41.295Z,10.80
2022-11-26T17:51:09.291Z,10.70
2022-11-26T17:53:37.049Z,10.70
2022-11-26T17:56:06.144Z,10.70
2022-11-26T17:58:32.927Z,10.70
2022-11-26T18:00:59.686Z,10.70
2022-11-26T18:03:26.651Z,10.70
2022-11-26T18:05:53.399Z,10.70
2022-11-26T18:08:20.204Z,10.60
2022-11-26T18:10:46.985Z,10.70
2022-11-26T18:13:13.840Z,10.70
2022-11-26T18:15:42.149Z,10.60
2022-11-26T18:18:09.889Z,10.60
2022-11-26T18:20:36.661Z,10.50
2022-11-26T18:23:04.212Z,10.50
2022-11-26T18:25:33.461Z,10.50
2022-11-26T18:28:00.516Z,10.50
2022-11-26T18:30:30.991Z,10.50
2022-11-26T18:32:57.750Z,10.50
2022-11-26T18:35:24.868Z,10.50
2022-11-26T18:37:51.603Z,10.50
2022-11-26T18:40:18.565Z,10.40
2022-11-26T18:42:45.562Z,10.40
2022-11-26T18:45:15.562Z,10.30
2022-11-26T18:47:43.590Z,10.20
2022-11-26T18:50:10.701Z,10.20
2022-11-26T18:52:37.506Z,10.10
2022-11-26T18:55:08.760Z,10.10
2022-11-26T18:57:36.199Z,10.10
2022-11-26T19:00:04.012Z,10.10
2022-11-26T19:02:30.729Z,10.10
2022-11-26T19:04:57.664Z,10.20
2022-11-26T19:07:24.419Z,10.20
2022-11-26T19:09:51.155Z,10.20
2022-11-26T19:12:18.099Z,10.20
2022-11-26T19:14:44.780Z,10.20
2022-11-26T19:17:12.468Z,10.20
2022-11-26T19:19:39.814Z,10.10
2022-11-26T19:22:06.721Z,10.10
2022-11-26T19:24:33.525Z,10.00
2022-11-26T19:27:00.356Z,10.00
2022-11-26T19:29:27.115Z,10.10
2022-11-26T19:31:53.912Z,10.00
2022-11-26T19:34:21.881Z,10.00
2022-11-26T19:36:49.065Z,9.90
2022-11-26T19:39:17.162Z,9.90
2022-11-26T19:41:44.414Z,9.80
2022-11-26T19:44:12.581Z,9.70
2022-11-26T19:46:41.392Z,9.70
2022-11-26T19:49:11.892Z,9.70
2022-11-26T19:51:39.175Z,9.70
2022-11-26T19:54:06.747Z,9.80
2022-11-26T19:56:34.210Z,9.70
2022-11-26T19:59:02.348Z,9.60
2022-11-26T20:01:32.505Z,9.50
2022-11-26T20:04:05.213Z,9.60
2022-11-26T20:06:33.661Z,9.60
2022-11-26T20:09:00.452Z,9.60
2022-11-26T20:11:29.112Z,9.70
2022-11-26T20:13:56.875Z,9.60
2022-11-26T20:16:31.370Z,9.70
2022-11-26T20:18:59.461Z,9.80
2022-11-26T20:21:29.154Z,9.80
2022-11-26T20:23:58.917Z,9.80
2022-11-26T20:26:34.471Z,9.80
2022-11-26T20:29:05.287Z,9.80
2022-11-26T20:31:32.868Z,9.80
2022-11-26T20:34:03.080Z,9.80
2022-11-26T20:36:30.380Z,9.80
2022-11-26T20:38:59.715Z,9.80
2022-11-26T20:41:27.512Z,9.70
2022-11-26T20:43:59.098Z,9.70
2022-11-26T20:46:27.601Z,9.70
2022-11-26T20:48:55.147Z,9.50
2022-11-26T20:51:22.586Z,9.50
2022-11-26T20:53:51.140Z,9.50
2022-11-26T20:56:20.208Z,9.40
2022-11-26T20:58:47.644Z,9.30
2022-11-26T21:01:17.177Z,9.30
2022-11-26T21:03:44.937Z,9.30
2022-11-26T21:06:14.152Z,9.20
2022-11-26T21:08:42.071Z,9.40
2022-11-26T21:11:09.304Z,9.40
2022-11-26T21:13:38.098Z,9.40
2022-11-26T21:16:07.517Z,9.40
2022-11-26T21:18:34.304Z,9.40
2022-11-26T21:21:23.857Z,9.40
2022-11-26T21:23:51.098Z,9.30
2022-11-26T21:26:20.426Z,9.20
2022-11-26T21:28:55.334Z,9.10
2022-11-26T21:31:23.335Z,9.10
2022-11-26T21:34:00.769Z,9.10
2022-11-26T21:36:29.536Z,9.00
2022-11-26T21:38:56.340Z,9.10
2022-11-26T21:41:23.911Z,9.00
2022-11-26T21:43:51.319Z,8.90
2022-11-26T21:46:26.433Z,8.90
2022-11-26T21:48:56.628Z,8.80
2022-11-26T21:51:25.616Z,8.90
2022-11-26T21:53:54.463Z,8.80
2022-11-26T21:56:29.184Z,8.80
2022-11-26T21:58:57.539Z,8.80
2022-11-26T22:01:35.926Z,8.80
2022-11-26T22:04:12.451Z,8.80
2022-11-26T22:06:39.270Z,8.80
2022-11-26T22:09:07.442Z,8.80
2022-11-26T22:11:36.762Z,8.70
2022-11-26T22:14:04.665Z,8.70
2022-11-26T22:16:32.002Z,8.60
2022-11-26T22:19:00.136Z,8.60
2022-11-26T22:21:31.291Z,8.50
2022-11-26T22:24:00.003Z,8.50
2022-11-26T22:26:27.912Z,8.40
2022-11-26T22:28:56.115Z,8.40
2022-11-26T22:31:26.796Z,8.30
2022-11-26T22:33:56.408Z,8.30
2022-11-26T22:36:23.204Z,8.30
2022-11-26T22:38:49.949Z,8.30
2022-11-26T22:41:16.664Z,8.40
2022-11-26T22:43:43.598Z,8.40
2022-11-26T22:46:15.866Z,8.40
2022-11-26T22:48:43.657Z,8.40
2022-11-26T22:51:10.497Z,8.40
2022-11-26T22:53:37.455Z,8.40
2022-11-26T22:56:05.266Z,8.50
2022-11-26T22:58:34.013Z,8.50
2022-11-26T23:01:08.120Z,8.60
2022-11-26T23:03:36.214Z,8.60
2022-11-26T23:06:09.351Z,8.60
2022-11-26T23:08:37.101Z,8.70
2022-11-26T23:11:10.481Z,8.70
2022-11-26T23:13:37.234Z,8.80
2022-11-26T23:16:08.267Z,8.80
2022-11-26T23:18:36.361Z,8.80
2022-11-26T23:21:06.376Z,8.80
2022-11-26T23:23:37.224Z,8.80
2022-11-26T23:26:05.819Z,8.80
2022-11-26T23:28:34.137Z,8.70
2022-11-26T23:31:02.632Z,8.60
2022-11-26T23:33:29.781Z,8.60
2022-11-26T23:35:58.272Z,8.60
2022-11-26T23:38:25.321Z,8.50
2022-11-26T23:40:55.821Z,8.50
2022-11-26T23:43:23.017Z,8.50
2022-11-26T23:45:50.356Z,8.50
2022-11-26T23:48:17.055Z,8.50
2022-11-26T23:50:43.931Z,8.50
2022-11-26T23:53:10.788Z,8.60
2022-11-26T23:55:37.616Z,8.60
2022-11-26T23:58:04.431Z,8.60
